Time;durP1;ratioP1;P1;durP2;ratioP2;P2;SDS_P1;SDS_P2;PMS_P1;PMS_P2;Temp;Humidity;BMP_temperature;BMP_pressure;BME280_temperature;BME280_humidity;BME280_pressure;Samples;Min_cycle;Max_cycle;Signal;HPM_P1;HPM_P2
2022/06/06 00:02:21;;;;;;;;;;;16.50;1.00;;;;;;5056463;28;19942;-85
2022/06/06 00:05:12;;;;;;;;;;;16.50;1.00;;;;;;5058673;28;19912;-84
2022/06/06 00:07:48;;;;;;;;;;;16.50;1.00;;;;;;5102898;28;19935;-84
2022/06/06 00:10:14;;;;;;;;;;;16.50;1.00;;;;;;5075490;28;19955;-85
2022/06/06 00:15:42;;;;;;;;;;;16.70;1.00;;;;;;5073711;28;20046;-84
2022/06/06 00:36:48;;;;;;;;;;;16.60;1.00;;;;;;5056898;28;20315;-80
2022/06/06 00:42:45;;;;;;;;;;;16.60;1.00;;;;;;5082080;28;19919;-82
2022/06/06 00:48:13;;;;;;;;;;;16.50;1.00;;;;;;5077059;28;19946;-81
2022/06/06 00:53:52;;;;;;;;;;;16.50;1.00;;;;;;5056387;28;19966;-81
2022/06/06 00:56:18;;;;;;;;;;;16.50;1.00;;;;;;5076981;28;19919;-80
2022/06/06 01:01:49;;;;;;;;;;;16.50;1.00;;;;;;5080874;28;19918;-80
2022/06/06 01:10:21;;;;;;;;;;;16.40;1.00;;;;;;5068614;28;19974;-81
2022/06/06 01:16:18;;;;;;;;;;;16.30;1.00;;;;;;5075671;28;20351;-81
2022/06/06 01:25:13;;;;;;;;;;;16.10;1.00;;;;;;5069666;28;20020;-81
2022/06/06 01:30:43;;;;;;;;;;;16.00;1.00;;;;;;5079132;28;19923;-84
2022/06/06 01:33:18;;;;;;;;;;;15.80;1.00;;;;;;5096319;28;19912;-84
2022/06/06 01:38:47;;;;;;;;;;;15.80;1.00;;;;;;5091251;28;19932;-85
2022/06/06 01:44:19;;;;;;;;;;;15.60;1.00;;;;;;5075490;28;20350;-81
2022/06/06 01:49:49;;;;;;;;;;;15.60;1.00;;;;;;5081475;28;19952;-80
2022/06/06 01:58:22;;;;;;;;;;;15.40;1.00;;;;;;5086174;28;19919;-81
2022/06/06 02:03:51;;;;;;;;;;;15.30;1.00;;;;;;5075121;28;19919;-80
2022/06/06 02:09:51;;;;;;;;;;;15.20;1.00;;;;;;5081651;28;19962;-80
2022/06/06 02:18:22;;;;;;;;;;;15.10;1.00;;;;;;5054755;28;19920;-80
2022/06/06 02:29:56;;;;;;;;;;;15.10;1.00;;;;;;5085169;28;20278;-81
2022/06/06 02:35:27;;;;;;;;;;;15.00;1.00;;;;;;5078722;28;19916;-80
2022/06/06 02:41:07;;;;;;;;;;;15.00;1.00;;;;;;5087079;28;19920;-80
2022/06/06 02:46:36;;;;;;;;;;;15.00;1.00;;;;;;5082366;28;20414;-84
2022/06/06 02:49:18;;;;;;;;;;;15.00;1.00;;;;;;5074221;28;19924;-84
2022/06/06 02:52:01;;;;;;;;;;;14.90;1.00;;;;;;5056749;28;20019;-84
2022/06/06 02:57:30;;;;;;;;;;;14.90;1.00;;;;;;5072688;28;19914;-84
2022/06/06 03:02:58;;;;;;;;;;;14.90;1.00;;;;;;5083738;28;20006;-81
2022/06/06 03:05:33;;;;;;;;;;;14.80;1.00;;;;;;5063787;28;19969;-81
2022/06/06 03:11:06;;;;;;;;;;;14.80;1.00;;;;;;5074539;28;19922;-80
2022/06/06 03:25:54;;;;;;;;;;;14.80;1.00;;;;;;5078363;28;19919;-80
2022/06/06 03:31:22;;;;;;;;;;;14.90;1.00;;;;;;5062501;28;19966;-84
2022/06/06 03:36:50;;;;;;;;;;;14.80;1.00;;;;;;5073802;28;19916;-84
2022/06/06 03:42:41;;;;;;;;;;;14.90;1.00;;;;;;5073865;28;20002;-84
2022/06/06 03:48:28;;;;;;;;;;;14.90;1.00;;;;;;5053922;28;19979;-84
2022/06/06 03:51:01;;;;;;;;;;;14.90;1.00;;;;;;5040254;28;19917;-84
2022/06/06 04:05:38;;;;;;;;;;;15.40;1.00;;;;;;5087077;28;20007;-80
2022/06/06 04:11:16;;;;;;;;;;;15.70;1.00;;;;;;5077020;28;20038;-80
2022/06/06 04:16:48;;;;;;;;;;;15.90;1.00;;;;;;5076846;28;19931;-81
2022/06/06 04:19:26;;;;;;;;;;;16.00;1.00;;;;;;5079658;28;20370;-81
2022/06/06 04:24:54;;;;;;;;;;;16.20;1.00;;;;;;5076738;28;19942;-81
2022/06/06 04:33:35;;;;;;;;;;;16.50;1.00;;;;;;5089719;28;19919;-81
2022/06/06 04:39:25;;;;;;;;;;;16.80;1.00;;;;;;5076782;28;19959;-81
2022/06/06 04:45:03;;;;;;;;;;;16.80;1.00;;;;;;5096709;28;19919;-83
2022/06/06 04:50:32;;;;;;;;;;;17.00;1.00;;;;;;5060867;28;19926;-83
2022/06/06 04:56:01;;;;;;;;;;;17.00;1.00;;;;;;5086857;28;19966;-83
2022/06/06 05:04:33;;;;;;;;;;;17.20;1.00;;;;;;5071400;28;19915;-80
2022/06/06 05:10:20;;;;;;;;;;;17.40;1.00;;;;;;5096109;28;19959;-80
2022/06/06 05:22:15;;;;;;;;;;;17.90;1.00;;;;;;5079496;28;19946;-80
2022/06/06 05:31:17;;;;;;;;;;;18.20;1.00;;;;;;5086654;28;19923;-80
2022/06/06 05:46:02;;;;;;;;;;;19.00;1.00;;;;;;5033545;28;19935;-80
2022/06/06 05:48:30;;;;;;;;;;;19.10;1.00;;;;;;5033392;28;20281;-80
2022/06/06 05:54:04;;;;;;;;;;;19.50;1.00;;;;;;5037866;28;20467;-80
2022/06/06 06:02:47;;;;;;;;;;;19.80;99.90;;;;;;5033079;28;19919;-77
2022/06/06 06:05:48;;;;;;;;;;;19.80;99.90;;;;;;5040752;28;19909;-77
2022/06/06 06:11:20;;;;;;;;;;;19.90;99.90;;;;;;5080296;28;19924;-85
2022/06/06 06:16:54;;;;;;;;;;;20.40;99.90;;;;;;5070721;28;19971;-88
2022/06/06 06:19:51;;;;;;;;;;;20.50;99.90;;;;;;5060900;28;20001;-79
2022/06/06 06:22:20;;;;;;;;;;;20.70;99.90;;;;;;5039170;28;20328;-79
2022/06/06 06:27:49;;;;;;;;;;;21.00;99.90;;;;;;5026687;28;20410;-88
2022/06/06 06:30:27;;;;;;;;;;;21.10;99.90;;;;;;5016414;28;19913;-79
2022/06/06 06:33:02;;;;;;;;;;;21.20;99.90;;;;;;5032998;28;20313;-79
2022/06/06 06:35:57;;;;;;;;;;;21.20;99.90;;;;;;5040065;28;19916;-76
2022/06/06 06:38:23;;;;;;;;;;;21.40;99.90;;;;;;4999639;28;19909;-75
2022/06/06 06:40:59;;;;;;;;;;;21.60;99.90;;;;;;4996393;28;20320;-79
2022/06/06 06:46:33;;;;;;;;;;;21.50;99.90;;;;;;5005852;28;19916;-76
2022/06/06 06:49:18;;;;;;;;;;;21.50;99.90;;;;;;5000170;28;19949;-85
2022/06/06 06:52:07;;;;;;;;;;;21.40;99.90;;;;;;5012499;28;19926;-85
2022/06/06 06:54:49;;;;;;;;;;;21.30;99.90;;;;;;5009802;28;19914;-76
2022/06/06 07:00:18;;;;;;;;;;;20.90;99.90;;;;;;5019573;28;19916;-75
2022/06/06 07:09:06;;;;;;;;;;;20.80;99.90;;;;;;4982653;28;20270;-75
2022/06/06 07:11:42;;;;;;;;;;;20.70;99.90;;;;;;4978092;28;19949;-75
2022/06/06 07:14:30;;;;;;;;;;;20.60;99.90;;;;;;4981821;28;20391;-75
2022/06/06 07:20:18;;;;;;;;;;;20.70;99.90;;;;;;5014258;28;19916;-78
2022/06/06 07:25:49;;;;;;;;;;;21.10;99.90;;;;;;5017521;28;19932;-78
2022/06/06 07:28:48;;;;;;;;;;;21.20;99.90;;;;;;5025995;28;20454;-78
2022/06/06 07:34:31;;;;;;;;;;;21.60;99.90;;;;;;5018812;28;20052;-75
2022/06/06 07:37:00;;;;;;;;;;;22.20;99.90;;;;;;5022588;28;19980;-77
2022/06/06 07:42:48;;;;;;;;;;;22.40;99.90;;;;;;5011477;28;19917;-81
2022/06/06 07:45:24;;;;;;;;;;;22.40;99.90;;;;;;5055211;28;19909;-81
2022/06/06 07:54:12;;;;;;;;;;;23.00;99.90;;;;;;5074511;28;20381;-83
2022/06/06 07:59:52;;;;;;;;;;;22.50;99.90;;;;;;5083854;28;19916;-80
2022/06/06 08:05:27;;;;;;;;;;;22.80;99.90;;;;;;5077053;28;21164;-83
2022/06/06 08:20:16;;;;;;;;;;;21.70;99.90;;;;;;5077980;28;19919;-78
2022/06/06 08:25:44;;;;;;;;;;;21.70;99.90;;;;;;5073803;28;19920;-78
2022/06/06 08:31:13;;;;;;;;;;;21.80;99.90;;;;;;5065864;28;19915;-85
2022/06/06 08:37:19;;;;;;;;;;;21.60;99.90;;;;;;5083058;28;19918;-86
2022/06/06 08:43:01;;;;;;;;;;;21.40;99.90;;;;;;5084107;28;19919;-79
2022/06/06 08:48:29;;;;;;;;;;;21.20;99.90;;;;;;5080653;28;20014;-83
2022/06/06 08:57:19;;;;;;;;;;;21.10;99.90;;;;;;5067105;28;20054;-79
2022/06/06 09:05:51;;;;;;;;;;;21.50;99.90;;;;;;5089600;28;19988;-82
2022/06/06 09:08:30;;;;;;;;;;;21.80;99.90;;;;;;5070833;28;20452;-89
2022/06/06 09:14:24;;;;;;;;;;;22.10;99.90;;;;;;5082466;28;19915;-83
2022/06/06 09:16:53;;;;;;;;;;;22.20;99.90;;;;;;5076030;28;19909;-87
2022/06/06 09:19:28;;;;;;;;;;;22.30;99.90;;;;;;5058894;28;19920;-77
2022/06/06 09:22:00;;;;;;;;;;;22.10;99.90;;;;;;5087872;28;19915;-77
2022/06/06 09:24:38;;;;;;;;;;;22.20;99.90;;;;;;5077976;28;19908;-76
2022/06/06 09:27:30;;;;;;;;;;;22.60;99.90;;;;;;5080907;28;19909;-80
2022/06/06 09:30:08;;;;;;;;;;;22.60;99.90;;;;;;5088307;28;19912;-74
2022/06/06 09:35:53;;;;;;;;;;;22.80;99.90;;;;;;5081624;28;19934;-80
2022/06/06 09:41:37;;;;;;;;;;;23.40;99.90;;;;;;5083508;28;19922;-83
2022/06/06 09:44:20;;;;;;;;;;;23.70;99.90;;;;;;5078951;28;20379;-83
2022/06/06 09:47:02;;;;;;;;;;;23.80;99.90;;;;;;5075114;28;20007;-82
2022/06/06 09:49:37;;;;;;;;;;;24.20;99.90;;;;;;5083810;28;19913;-80
2022/06/06 09:52:24;;;;;;;;;;;24.70;99.90;;;;;;5066022;28;19928;-78
2022/06/06 10:01:12;;;;;;;;;;;25.00;99.90;;;;;;5087999;28;19951;-83
2022/06/06 10:04:12;;;;;;;;;;;24.70;99.90;;;;;;5084322;28;19908;-82
2022/06/06 10:07:00;;;;;;;;;;;24.50;99.90;;;;;;5095617;28;19908;-84
2022/06/06 10:09:48;;;;;;;;;;;24.40;99.90;;;;;;5079155;28;19912;-93
2022/06/06 10:18:43;;;;;;;;;;;23.80;99.90;;;;;;5074195;28;19955;-86
2022/06/06 10:21:30;;;;;;;;;;;23.80;99.90;;;;;;5091669;28;20007;-85
2022/06/06 10:27:18;;;;;;;;;;;24.00;99.90;;;;;;5074683;28;19919;-84
2022/06/06 10:30:12;;;;;;;;;;;24.00;99.90;;;;;;5101138;28;19919;-84
2022/06/06 10:32:44;;;;;;;;;;;24.20;99.90;;;;;;5083269;28;19992;-83
2022/06/06 10:35:30;;;;;;;;;;;23.80;99.90;;;;;;5081668;28;19973;-84
2022/06/06 10:38:01;;;;;;;;;;;23.70;99.90;;;;;;5084514;28;20267;-83
2022/06/06 10:44:00;;;;;;;;;;;23.60;99.90;;;;;;5076808;28;20042;-85
2022/06/06 10:50:06;;;;;;;;;;;23.90;99.90;;;;;;5078047;28;20409;-84
2022/06/06 10:55:43;;;;;;;;;;;23.60;99.90;;;;;;5071017;28;20386;-84
2022/06/06 11:04:33;;;;;;;;;;;23.80;99.90;;;;;;5081632;28;19919;-84
2022/06/06 11:19:31;;;;;;;;;;;24.60;99.90;;;;;;5087913;28;19915;-85
2022/06/06 11:22:12;;;;;;;;;;;24.60;99.90;;;;;;5089810;28;19909;-85
2022/06/06 11:28:19;;;;;;;;;;;25.30;99.90;;;;;;5080182;28;20387;-84
2022/06/06 11:33:47;;;;;;;;;;;25.40;99.90;;;;;;5077469;28;19915;-83
2022/06/06 11:48:36;;;;;;;;;;;26.10;99.90;;;;;;5080050;28;20016;-78
2022/06/06 11:51:20;;;;;;;;;;;26.00;99.90;;;;;;5079794;28;19938;-84
2022/06/06 11:54:07;;;;;;;;;;;25.80;99.90;;;;;;5083261;28;19965;-82
2022/06/06 12:00:13;;;;;;;;;;;25.60;99.90;;;;;;5086937;28;19957;-81
2022/06/06 12:03:05;;;;;;;;;;;25.80;99.90;;;;;;5073271;28;19958;-83
2022/06/06 12:11:51;;;;;;;;;;;25.70;99.90;;;;;;5026967;28;20410;-82
2022/06/06 12:14:36;;;;;;;;;;;25.70;99.90;;;;;;5025062;28;19909;-82
2022/06/06 12:17:36;;;;;;;;;;;25.60;99.90;;;;;;5071510;28;19913;-82
2022/06/06 12:23:04;;;;;;;;;;;25.40;99.90;;;;;;5035036;28;20499;-82
2022/06/06 12:25:36;;;;;;;;;;;25.30;99.90;;;;;;5034780;28;19913;-82
2022/06/06 12:28:26;;;;;;;;;;;25.20;99.90;;;;;;5043808;28;19909;-85
2022/06/06 12:46:17;;;;;;;;;;;25.70;99.90;;;;;;5078772;28;19927;-84
2022/06/06 12:49:18;;;;;;;;;;;25.60;99.90;;;;;;5091576;28;19924;-86
2022/06/06 12:51:44;;;;;;;;;;;25.70;99.90;;;;;;5058613;28;20291;-86
2022/06/06 12:54:31;;;;;;;;;;;25.90;99.90;;;;;;5076811;28;19912;-86
2022/06/06 12:56:57;;;;;;;;;;;25.60;99.90;;;;;;5075888;28;20003;-85
2022/06/06 12:59:42;;;;;;;;;;;25.50;99.90;;;;;;5096393;28;19912;-81
2022/06/06 13:02:14;;;;;;;;;;;25.60;99.90;;;;;;5087023;28;19916;-82
2022/06/06 13:04:45;;;;;;;;;;;25.80;99.90;;;;;;5081362;28;20354;-84
2022/06/06 13:07:24;;;;;;;;;;;25.90;99.90;;;;;;5086030;28;19916;-84
2022/06/06 13:09:53;;;;;;;;;;;26.00;99.90;;;;;;5094107;28;19919;-85
2022/06/06 13:15:34;;;;;;;;;;;26.50;99.90;;;;;;5078323;28;20011;-85
2022/06/06 13:18:24;;;;;;;;;;;26.60;99.90;;;;;;5089531;28;19948;-85
2022/06/06 13:21:14;;;;;;;;;;;26.60;99.90;;;;;;5078847;28;19912;-85
2022/06/06 13:23:55;;;;;;;;;;;26.50;99.90;;;;;;5064100;28;20366;-88
2022/06/06 13:26:31;;;;;;;;;;;26.60;99.90;;;;;;5087942;28;20351;-88
2022/06/06 13:28:57;;;;;;;;;;;26.70;99.90;;;;;;5077951;28;20427;-89
2022/06/06 13:31:23;;;;;;;;;;;26.60;99.90;;;;;;5078090;28;19935;-89
2022/06/06 13:33:57;;;;;;;;;;;26.20;99.90;;;;;;5079722;28;19909;-90
2022/06/06 13:36:30;;;;;;;;;;;26.00;99.90;;;;;;5058246;28;19913;-91
2022/06/06 13:38:56;;;;;;;;;;;26.10;99.90;;;;;;5076260;28;20002;-91
2022/06/06 13:41:30;;;;;;;;;;;26.20;99.90;;;;;;5066182;28;19975;-90
2022/06/06 13:43:59;;;;;;;;;;;25.90;99.90;;;;;;5077418;28;19908;-90
2022/06/06 13:46:25;;;;;;;;;;;26.10;99.90;;;;;;5072122;28;20014;-90
2022/06/06 13:48:55;;;;;;;;;;;26.20;99.90;;;;;;5077734;28;19958;-91
2022/06/06 13:51:35;;;;;;;;;;;26.60;99.90;;;;;;5074276;28;19962;-92
2022/06/06 13:54:01;;;;;;;;;;;26.60;99.90;;;;;;5084389;28;19913;-91
2022/06/06 13:56:30;;;;;;;;;;;26.50;99.90;;;;;;5074969;28;19915;-86
2022/06/06 13:59:06;;;;;;;;;;;26.80;99.90;;;;;;5077426;28;19908;-89
2022/06/06 14:01:40;;;;;;;;;;;26.90;99.90;;;;;;5076792;28;19912;-88
2022/06/06 14:04:14;;;;;;;;;;;27.40;99.90;;;;;;5095356;28;19915;-86
2022/06/06 14:06:46;;;;;;;;;;;27.30;99.90;;;;;;5077159;28;20412;-81
2022/06/06 14:09:15;;;;;;;;;;;27.10;99.90;;;;;;5080921;28;19970;-82
2022/06/06 14:11:56;;;;;;;;;;;27.20;99.90;;;;;;5089221;28;19916;-81
2022/06/06 14:14:22;;;;;;;;;;;27.30;99.90;;;;;;5090745;28;19908;-81
2022/06/06 14:16:48;;;;;;;;;;;27.40;99.90;;;;;;5094270;28;20041;-82
2022/06/06 14:19:16;;;;;;;;;;;27.50;99.90;;;;;;5094312;28;19951;-82
2022/06/06 14:21:53;;;;;;;;;;;27.40;99.90;;;;;;5094534;28;19908;-81
2022/06/06 14:24:21;;;;;;;;;;;27.10;99.90;;;;;;5088699;28;19909;-81
2022/06/06 14:27:06;;;;;;;;;;;26.70;99.90;;;;;;5085987;28;19908;-81
2022/06/06 14:29:32;;;;;;;;;;;26.50;99.90;;;;;;5075946;28;19912;-81
2022/06/06 14:32:02;;;;;;;;;;;26.40;99.90;;;;;;5092264;28;20410;-81
2022/06/06 14:34:57;;;;;;;;;;;26.60;99.90;;;;;;5093357;28;20403;-81
2022/06/06 14:37:32;;;;;;;;;;;26.80;99.90;;;;;;5051632;28;19920;-81
2022/06/06 14:39:59;;;;;;;;;;;26.70;99.90;;;;;;5051455;28;19909;-81
2022/06/06 14:42:29;;;;;;;;;;;27.00;99.90;;;;;;5046745;28;19909;-81
2022/06/06 14:44:59;;;;;;;;;;;27.10;99.90;;;;;;5014919;28;19909;-81
2022/06/06 14:47:25;;;;;;;;;;;27.00;99.90;;;;;;5014782;28;20098;-81
2022/06/06 14:52:51;;;;;;;;;;;27.00;99.90;;;;;;5012541;28;19949;-88
2022/06/06 14:55:18;;;;;;;;;;;26.90;99.90;;;;;;5015213;28;19909;-88
2022/06/06 14:57:44;;;;;;;;;;;27.10;99.90;;;;;;5013454;28;19910;-88
2022/06/06 15:00:13;;;;;;;;;;;27.30;99.90;;;;;;5031655;28;20444;-87
2022/06/06 15:02:38;;;;;;;;;;;27.10;99.90;;;;;;5015518;28;20391;-88
2022/06/06 15:05:15;;;;;;;;;;;26.40;99.90;;;;;;5032138;28;19909;-88
2022/06/06 15:07:53;;;;;;;;;;;26.20;99.90;;;;;;5015272;28;19909;-81
2022/06/06 15:10:22;;;;;;;;;;;26.30;99.90;;;;;;5029191;28;20364;-81
2022/06/06 15:12:47;;;;;;;;;;;26.70;99.90;;;;;;5014843;28;20000;-81
2022/06/06 15:15:14;;;;;;;;;;;28.50;99.90;;;;;;5010447;28;19956;-81
2022/06/06 15:17:48;;;;;;;;;;;29.70;99.90;;;;;;5030858;28;20368;-81
2022/06/06 15:20:20;;;;;;;;;;;30.90;99.90;;;;;;5031004;28;19909;-81
2022/06/06 15:22:46;;;;;;;;;;;30.70;99.90;;;;;;5031746;28;20462;-88
2022/06/06 15:25:19;;;;;;;;;;;30.40;99.90;;;;;;5015493;28;19995;-88
2022/06/06 15:27:45;;;;;;;;;;;29.70;99.90;;;;;;5028960;28;20286;-88
2022/06/06 15:30:29;;;;;;;;;;;29.90;99.90;;;;;;5093943;28;19912;-87
2022/06/06 15:33:10;;;;;;;;;;;31.40;99.90;;;;;;5093802;28;19908;-89
2022/06/06 15:35:51;;;;;;;;;;;32.80;99.90;;;;;;5094062;28;19908;-88
2022/06/06 15:38:29;;;;;;;;;;;33.50;99.90;;;;;;5094211;28;19962;-88
2022/06/06 15:41:00;;;;;;;;;;;35.40;99.90;;;;;;5094031;28;19916;-89
2022/06/06 15:43:45;;;;;;;;;;;36.80;99.90;;;;;;5093993;28;19909;-89
2022/06/06 15:46:10;;;;;;;;;;;37.00;99.90;;;;;;5111260;28;20298;-88
2022/06/06 15:48:36;;;;;;;;;;;38.20;99.90;;;;;;5097674;28;19912;-88
2022/06/06 15:51:21;;;;;;;;;;;38.40;99.90;;;;;;5077107;28;19951;-88
2022/06/06 15:54:05;;;;;;;;;;;37.50;99.90;;;;;;5071549;28;19919;-82
2022/06/06 15:56:40;;;;;;;;;;;35.60;99.90;;;;;;5094428;28;19908;-81
2022/06/06 15:59:11;;;;;;;;;;;35.90;99.90;;;;;;5096923;28;20367;-81
2022/06/06 16:01:45;;;;;;;;;;;35.80;99.90;;;;;;5096601;28;19908;-81
2022/06/06 16:04:28;;;;;;;;;;;34.90;99.90;;;;;;5096850;28;19908;-82
2022/06/06 16:06:59;;;;;;;;;;;34.40;99.90;;;;;;5097327;28;19915;-88
2022/06/06 16:09:37;;;;;;;;;;;34.70;99.90;;;;;;5097249;28;19919;-88
2022/06/06 16:12:08;;;;;;;;;;;35.80;99.90;;;;;;5089426;28;19983;-89
2022/06/06 16:14:37;;;;;;;;;;;35.90;99.90;;;;;;5095200;28;19991;-89
2022/06/06 16:17:07;;;;;;;;;;;36.50;99.90;;;;;;5097447;28;19912;-88
2022/06/06 16:19:33;;;;;;;;;;;37.30;99.90;;;;;;5097225;28;19922;-88
2022/06/06 16:22:10;;;;;;;;;;;36.70;99.90;;;;;;5085877;28;20307;-87
2022/06/06 16:24:54;;;;;;;;;;;36.10;99.90;;;;;;5076864;28;19908;-87
2022/06/06 16:27:24;;;;;;;;;;;36.30;99.90;;;;;;5092404;28;19915;-88
2022/06/06 16:29:56;;;;;;;;;;;36.50;99.90;;;;;;5087701;28;19920;-88
2022/06/06 16:32:37;;;;;;;;;;;36.60;99.90;;;;;;5093727;28;19908;-88
2022/06/06 16:35:22;;;;;;;;;;;36.00;99.90;;;;;;5096934;28;20387;-88
2022/06/06 16:37:55;;;;;;;;;;;35.90;99.90;;;;;;5097264;28;19978;-87
2022/06/06 16:40:42;;;;;;;;;;;36.60;99.90;;;;;;5096854;28;19976;-88
2022/06/06 16:49:05;;;;;;;;;;;37.50;99.90;;;;;;5096566;28;19919;-88
2022/06/06 16:51:30;;;;;;;;;;;37.30;99.90;;;;;;5089947;28;19912;-88
2022/06/06 16:54:27;;;;;;;;;;;38.70;99.90;;;;;;5085217;28;19918;-87
2022/06/06 16:57:00;;;;;;;;;;;39.00;99.90;;;;;;5051468;28;19913;-87
2022/06/06 16:59:44;;;;;;;;;;;37.30;99.90;;;;;;5053556;28;19912;-87
2022/06/06 17:02:12;;;;;;;;;;;35.60;99.90;;;;;;5054147;28;20039;-86
2022/06/06 17:04:41;;;;;;;;;;;35.30;99.90;;;;;;5054108;28;19924;-87
2022/06/06 17:10:09;;;;;;;;;;;35.30;99.90;;;;;;5053842;28;20390;-87
2022/06/06 17:12:40;;;;;;;;;;;36.30;99.90;;;;;;5043364;28;19916;-87
2022/06/06 17:15:13;;;;;;;;;;;36.20;99.90;;;;;;5053866;28;19909;-87
2022/06/06 17:17:46;;;;;;;;;;;36.20;99.90;;;;;;5036829;28;19955;-87
2022/06/06 17:20:20;;;;;;;;;;;36.90;99.90;;;;;;5033744;28;20022;-88
2022/06/06 17:22:54;;;;;;;;;;;37.00;99.90;;;;;;5033918;28;19909;-87
2022/06/06 17:25:38;;;;;;;;;;;36.10;99.90;;;;;;5033800;28;19909;-85
2022/06/06 17:28:06;;;;;;;;;;;35.50;99.90;;;;;;5033766;28;20357;-87
2022/06/06 17:30:43;;;;;;;;;;;35.60;99.90;;;;;;5033377;28;20007;-87
2022/06/06 17:33:18;;;;;;;;;;;35.00;99.90;;;;;;5043755;28;19909;-86
2022/06/06 17:35:53;;;;;;;;;;;35.10;99.90;;;;;;5093755;28;19947;-87
2022/06/06 17:38:18;;;;;;;;;;;35.60;99.90;;;;;;5082268;28;19993;-81
2022/06/06 17:40:44;;;;;;;;;;;35.20;99.90;;;;;;5081397;28;20358;-81
2022/06/06 17:43:15;;;;;;;;;;;34.00;99.90;;;;;;5095091;28;19908;-81
2022/06/06 17:45:55;;;;;;;;;;;32.50;99.90;;;;;;5095029;28;20347;-81
2022/06/06 17:48:29;;;;;;;;;;;30.60;99.90;;;;;;5094761;28;20386;-80
2022/06/06 17:51:04;;;;;;;;;;;29.30;99.90;;;;;;5092989;28;20049;-81
2022/06/06 17:53:48;;;;;;;;;;;28.20;99.90;;;;;;5080172;28;20037;-87
2022/06/06 17:56:13;;;;;;;;;;;27.30;99.90;;;;;;5093101;28;20045;-87
2022/06/06 17:58:39;;;;;;;;;;;26.40;99.90;;;;;;5095640;28;19974;-87
2022/06/06 18:01:22;;;;;;;;;;;25.80;99.90;;;;;;5095141;28;19908;-87
2022/06/06 18:03:48;;;;;;;;;;;25.40;99.90;;;;;;5077542;28;19908;-87
2022/06/06 18:06:32;;;;;;;;;;;24.80;99.90;;;;;;5095098;28;20299;-87
2022/06/06 18:09:10;;;;;;;;;;;24.60;99.90;;;;;;5095607;28;19912;-87
2022/06/06 18:11:52;;;;;;;;;;;24.20;99.90;;;;;;5090699;28;20022;-87
2022/06/06 18:14:37;;;;;;;;;;;24.10;99.90;;;;;;5090787;28;19908;-86
2022/06/06 18:17:03;;;;;;;;;;;23.90;99.90;;;;;;5076976;28;19930;-87
2022/06/06 18:19:32;;;;;;;;;;;23.70;99.90;;;;;;5095245;28;20418;-85
2022/06/06 18:21:59;;;;;;;;;;;23.60;99.90;;;;;;5095024;28;19961;-87
2022/06/06 18:24:44;;;;;;;;;;;23.40;99.90;;;;;;5095015;28;19915;-81
2022/06/06 18:27:19;;;;;;;;;;;23.30;99.90;;;;;;5094066;28;19950;-81
2022/06/06 18:29:53;;;;;;;;;;;23.10;99.90;;;;;;5094154;28;20389;-81
2022/06/06 18:32:24;;;;;;;;;;;22.90;99.90;;;;;;5094003;28;19909;-80
2022/06/06 18:34:50;;;;;;;;;;;22.80;99.90;;;;;;5083727;28;19908;-81
2022/06/06 18:37:17;;;;;;;;;;;22.60;99.90;;;;;;5091019;28;19958;-81
2022/06/06 18:39:50;;;;;;;;;;;22.50;99.90;;;;;;5076143;28;19923;-81
2022/06/06 18:42:26;;;;;;;;;;;22.50;99.90;;;;;;5093851;28;20010;-81
2022/06/06 18:44:53;;;;;;;;;;;22.40;99.90;;;;;;5093979;28;19916;-81
2022/06/06 18:47:33;;;;;;;;;;;22.30;99.90;;;;;;5093801;28;19997;-80
2022/06/06 18:49:58;;;;;;;;;;;22.30;99.90;;;;;;5093687;28;19912;-80
2022/06/06 18:52:26;;;;;;;;;;;22.20;99.90;;;;;;5079347;28;19927;-80
2022/06/06 18:54:55;;;;;;;;;;;22.20;99.90;;;;;;5059385;28;19953;-87
2022/06/06 18:57:21;;;;;;;;;;;22.10;99.90;;;;;;5092616;28;20302;-87
2022/06/06 18:59:48;;;;;;;;;;;22.10;99.90;;;;;;5076361;28;19908;-87
2022/06/06 19:02:32;;;;;;;;;;;22.00;99.90;;;;;;5076725;28;19909;-87
2022/06/06 19:05:21;;;;;;;;;;;22.00;99.90;;;;;;5076618;28;19911;-87
2022/06/06 19:08:08;;;;;;;;;;;22.00;99.90;;;;;;5051882;28;19909;-88
2022/06/06 19:10:35;;;;;;;;;;;21.80;99.90;;;;;;5011745;28;20384;-80
2022/06/06 19:13:03;;;;;;;;;;;21.80;99.90;;;;;;4984177;28;20008;-80
2022/06/06 19:15:33;;;;;;;;;;;21.80;99.90;;;;;;5011346;28;19996;-80
2022/06/06 19:18:18;;;;;;;;;;;21.70;99.90;;;;;;5011219;28;19916;-80
2022/06/06 19:20:49;;;;;;;;;;;21.70;99.90;;;;;;5010711;28;19918;-80
2022/06/06 19:23:31;;;;;;;;;;;21.70;99.90;;;;;;5002178;28;19917;-81
2022/06/06 19:26:02;;;;;;;;;;;21.60;99.90;;;;;;5009656;28;20369;-81
2022/06/06 19:28:32;;;;;;;;;;;21.60;99.90;;;;;;5011142;28;20376;-81
2022/06/06 19:31:16;;;;;;;;;;;21.50;99.90;;;;;;5011184;28;19917;-81
2022/06/06 19:33:47;;;;;;;;;;;21.50;99.90;;;;;;5011097;28;20276;-81
2022/06/06 19:36:16;;;;;;;;;;;21.40;99.90;;;;;;5011268;28;20004;-80
2022/06/06 19:38:41;;;;;;;;;;;21.30;99.90;;;;;;4994945;28;19910;-81
2022/06/06 19:41:13;;;;;;;;;;;21.20;99.90;;;;;;5011154;28;19937;-80
2022/06/06 19:43:38;;;;;;;;;;;21.20;99.90;;;;;;4995037;28;19909;-80
2022/06/06 19:46:11;;;;;;;;;;;21.00;99.90;;;;;;5030930;28;19996;-81
2022/06/06 19:48:43;;;;;;;;;;;21.00;99.90;;;;;;5086410;28;19917;-81
2022/06/06 19:51:16;;;;;;;;;;;20.90;99.90;;;;;;5089660;28;19955;-80
2022/06/06 19:53:50;;;;;;;;;;;20.80;99.90;;;;;;5092967;28;19916;-81
2022/06/06 19:56:15;;;;;;;;;;;20.80;99.90;;;;;;5089795;28;19955;-80
2022/06/06 19:58:41;;;;;;;;;;;20.70;99.90;;;;;;5080587;28;20008;-81
2022/06/06 20:01:12;;;;;;;;;;;20.60;99.90;;;;;;5092648;28;19916;-81
2022/06/06 20:03:40;;;;;;;;;;;20.60;99.90;;;;;;5074874;28;20413;-80
2022/06/06 20:06:17;;;;;;;;;;;20.50;99.90;;;;;;5079481;28;19908;-81
2022/06/06 20:08:52;;;;;;;;;;;20.40;99.90;;;;;;5092962;28;19915;-81
2022/06/06 20:11:19;;;;;;;;;;;20.40;99.90;;;;;;5073984;28;19908;-88
2022/06/06 20:13:45;;;;;;;;;;;20.30;99.90;;;;;;5067416;28;19915;-88
2022/06/06 20:16:19;;;;;;;;;;;20.30;99.90;;;;;;5075563;28;19909;-88
2022/06/06 20:18:47;;;;;;;;;;;20.20;99.90;;;;;;5075754;28;19916;-87
2022/06/06 20:21:24;;;;;;;;;;;20.10;99.90;;;;;;5062172;28;19908;-88
2022/06/06 20:23:51;;;;;;;;;;;19.90;99.90;;;;;;5074947;28;19907;-88
2022/06/06 20:26:18;;;;;;;;;;;19.90;99.90;;;;;;5063579;28;19913;-88
2022/06/06 20:28:44;;;;;;;;;;;19.80;99.90;;;;;;5075799;28;19912;-88
2022/06/06 20:34:02;;;;;;;;;;;19.60;99.90;;;;;;5096009;28;19918;-88
2022/06/06 20:36:29;;;;;;;;;;;19.60;99.90;;;;;;5068035;28;19908;-88
2022/06/06 20:39:00;;;;;;;;;;;19.50;99.90;;;;;;5072223;28;19908;-88
2022/06/06 20:41:29;;;;;;;;;;;19.50;99.90;;;;;;5088940;28;20271;-80
2022/06/06 20:44:05;;;;;;;;;;;19.40;99.90;;;;;;5082526;28;20369;-80
2022/06/06 20:46:31;;;;;;;;;;;19.40;99.90;;;;;;5096294;28;19951;-80
2022/06/06 20:48:58;;;;;;;;;;;19.40;99.90;;;;;;5096009;28;20397;-81
2022/06/06 20:51:25;;;;;;;;;;;19.30;99.90;;;;;;5090444;28;20348;-80
2022/06/06 20:53:53;;;;;;;;;;;19.30;99.90;;;;;;5083533;28;20305;-80
2022/06/06 20:56:29;;;;;;;;;;;19.20;99.90;;;;;;5096512;28;19920;-88
2022/06/06 20:58:55;;;;;;;;;;;19.20;99.90;;;;;;5096766;28;20373;-88
2022/06/06 21:01:22;;;;;;;;;;;19.20;99.90;;;;;;5096450;28;19916;-89
2022/06/06 21:03:48;;;;;;;;;;;19.10;99.90;;;;;;5078684;28;19916;-88
2022/06/06 21:06:15;;;;;;;;;;;19.00;99.90;;;;;;5096545;28;19908;-88
2022/06/06 21:08:56;;;;;;;;;;;19.00;99.90;;;;;;5096552;28;19909;-89
2022/06/06 21:11:21;;;;;;;;;;;18.90;99.90;;;;;;5073436;28;19914;-88
2022/06/06 21:13:47;;;;;;;;;;;18.90;99.90;;;;;;5070330;28;19908;-88
2022/06/06 21:16:12;;;;;;;;;;;18.80;99.90;;;;;;5096453;28;19951;-89
2022/06/06 21:18:38;;;;;;;;;;;18.70;99.90;;;;;;5096534;28;19912;-89
2022/06/06 21:21:04;;;;;;;;;;;18.70;99.90;;;;;;5096464;28;19908;-89
2022/06/06 21:23:33;;;;;;;;;;;18.60;99.90;;;;;;5078399;28;19908;-88
2022/06/06 21:25:59;;;;;;;;;;;18.50;99.90;;;;;;5073496;28;19915;-88
2022/06/06 21:28:24;;;;;;;;;;;18.40;99.90;;;;;;5070142;28;19908;-88
2022/06/06 21:30:50;;;;;;;;;;;18.30;99.90;;;;;;5078174;28;19912;-89
2022/06/06 21:33:16;;;;;;;;;;;18.20;99.90;;;;;;5078238;28;19908;-88
2022/06/06 21:35:43;;;;;;;;;;;18.10;99.90;;;;;;5096019;28;19915;-89
2022/06/06 21:38:08;;;;;;;;;;;17.90;99.90;;;;;;5096030;28;19912;-89
2022/06/06 21:40:34;;;;;;;;;;;17.80;99.90;;;;;;5077887;28;20421;-81
2022/06/06 21:43:00;;;;;;;;;;;17.70;99.90;;;;;;5095063;28;20306;-81
2022/06/06 21:45:27;;;;;;;;;;;17.60;99.90;;;;;;5076850;28;19957;-81
2022/06/06 21:47:54;;;;;;;;;;;17.50;99.90;;;;;;5095003;28;20002;-80
2022/06/06 21:50:20;;;;;;;;;;;17.40;99.90;;;;;;5076817;28;19944;-80
2022/06/06 21:52:45;;;;;;;;;;;17.30;99.90;;;;;;5064461;28;19986;-81
2022/06/06 21:55:11;;;;;;;;;;;17.10;99.90;;;;;;5093792;28;20011;-81
2022/06/06 21:57:36;;;;;;;;;;;17.00;99.90;;;;;;5092815;28;19908;-81
2022/06/06 22:00:08;;;;;;;;;;;16.90;99.90;;;;;;5062949;28;19912;-80